sensor_id;sensor_type;location;lat;lon;timestamp;pressure;altitude;pressure_sealevel;temperature;humidity
56668;BME280;42542;48.360;10.958;2023-04-24T00:00:04;95210.03;;;10.70;100.00
56668;BME280;42542;48.360;10.958;2023-04-24T00:03:16;95204.84;;;10.69;100.00
56668;BME280;42542;48.360;10.958;2023-04-24T00:06:18;95204.22;;;10.67;100.00
56668;BME280;42542;48.360;10.958;2023-04-24T00:09:20;95200.09;;;10.64;100.00
56668;BME280;42542;48.360;10.958;2023-04-24T00:12:22;95210.13;;;10.62;100.00
56668;BME280;42542;48.360;10.958;2023-04-24T00:15:24;95211.88;;;10.55;100.00
56668;BME280;42542;48.360;10.958;2023-04-24T00:18:26;95206.91;;;10.52;100.00
56668;BME280;42542;48.360;10.958;2023-04-24T00:21:28;95219.72;;;10.56;100.00
56668;BME280;42542;48.360;10.958;2023-04-24T00:24:30;95215.56;;;10.54;100.00
56668;BME280;42542;48.360;10.958;2023-04-24T00:27:32;95209.13;;;10.48;100.00
56668;BME280;42542;48.360;10.958;2023-04-24T00:30:37;95213.47;;;10.49;100.00
56668;BME280;42542;48.360;10.958;2023-04-24T00:33:39;95213.00;;;10.46;100.00
56668;BME280;42542;48.360;10.958;2023-04-24T00:36:41;95208.88;;;10.43;100.00
56668;BME280;42542;48.360;10.958;2023-04-24T00:39:43;95206.28;;;10.35;100.00
56668;BME280;42542;48.360;10.958;2023-04-24T00:42:48;95205.63;;;10.33;100.00
56668;BME280;42542;48.360;10.958;2023-04-24T00:45:50;95205.81;;;10.32;100.00
56668;BME280;42542;48.360;10.958;2023-04-24T00:48:56;95209.50;;;10.31;100.00
56668;BME280;42542;48.360;10.958;2023-04-24T00:51:59;95195.88;;;10.26;100.00
56668;BME280;42542;48.360;10.958;2023-04-24T00:55:01;95195.88;;;10.26;100.00
56668;BME280;42542;48.360;10.958;2023-04-24T00:58:05;95193.38;;;10.24;100.00
56668;BME280;42542;48.360;10.958;2023-04-24T01:01:06;95200.78;;;10.22;100.00
56668;BME280;42542;48.360;10.958;2023-04-24T01:04:12;95196.63;;;10.20;100.00
56668;BME280;42542;48.360;10.958;2023-04-24T01:07:15;95198.63;;;10.17;100.00
56668;BME280;42542;48.360;10.958;2023-04-24T01:10:19;95192.00;;;10.13;100.00
56668;BME280;42542;48.360;10.958;2023-04-24T01:13:21;95199.00;;;10.14;100.00
56668;BME280;42542;48.360;10.958;2023-04-24T01:16:24;95188.66;;;10.11;100.00
56668;BME280;42542;48.360;10.958;2023-04-24T01:19:28;95191.91;;;10.07;100.00
56668;BME280;42542;48.360;10.958;2023-04-24T01:22:33;95178.56;;;10.07;100.00
56668;BME280;42542;48.360;10.958;2023-04-24T01:25:36;95177.25;;;10.03;100.00
56668;BME280;42542;48.360;10.958;2023-04-24T01:28:38;95179.56;;;10.06;100.00
56668;BME280;42542;48.360;10.958;2023-04-24T01:31:51;95178.06;;;10.03;100.00
56668;BME280;42542;48.360;10.958;2023-04-24T01:34:54;95182.59;;;10.03;100.00
56668;BME280;42542;48.360;10.958;2023-04-24T01:37:56;95180.91;;;10.02;100.00
56668;BME280;42542;48.360;10.958;2023-04-24T01:40:59;95172.47;;;9.98;100.00
56668;BME280;42542;48.360;10.958;2023-04-24T01:44:05;95177.81;;;9.98;100.00
56668;BME280;42542;48.360;10.958;2023-04-24T01:47:08;95160.31;;;9.96;100.00
56668;BME280;42542;48.360;10.958;2023-04-24T01:50:09;95169.97;;;9.97;100.00
56668;BME280;42542;48.360;10.958;2023-04-24T01:53:13;95164.81;;;9.95;100.00
56668;BME280;42542;48.360;10.958;2023-04-24T01:56:16;95161.31;;;9.95;100.00
56668;BME280;42542;48.360;10.958;2023-04-24T01:59:20;95159.84;;;9.92;100.00
56668;BME280;42542;48.360;10.958;2023-04-24T02:02:24;95161.03;;;9.90;100.00
56668;BME280;42542;48.360;10.958;2023-04-24T02:05:31;95156.44;;;9.84;100.00
56668;BME280;42542;48.360;10.958;2023-04-24T02:08:37;95158.28;;;9.83;100.00
56668;BME280;42542;48.360;10.958;2023-04-24T02:11:40;95162.22;;;9.87;100.00
56668;BME280;42542;48.360;10.958;2023-04-24T02:14:43;95160.59;;;9.86;100.00
56668;BME280;42542;48.360;10.958;2023-04-24T02:17:46;95168.78;;;9.85;100.00
56668;BME280;42542;48.360;10.958;2023-04-24T02:20:49;95167.47;;;9.80;100.00
56668;BME280;42542;48.360;10.958;2023-04-24T02:23:51;95166.47;;;9.82;100.00
56668;BME280;42542;48.360;10.958;2023-04-24T02:26:54;95169.13;;;9.82;100.00
56668;BME280;42542;48.360;10.958;2023-04-24T02:29:56;95163.88;;;9.73;100.00
56668;BME280;42542;48.360;10.958;2023-04-24T02:32:57;95171.53;;;9.76;100.00
56668;BME280;42542;48.360;10.958;2023-04-24T02:35:59;95175.84;;;9.77;100.00
56668;BME280;42542;48.360;10.958;2023-04-24T02:39:01;95159.75;;;9.71;100.00
56668;BME280;42542;48.360;10.958;2023-04-24T02:42:03;95168.03;;;9.76;100.00
56668;BME280;42542;48.360;10.958;2023-04-24T02:45:05;95165.91;;;9.71;100.00
56668;BME280;42542;48.360;10.958;2023-04-24T02:48:08;95170.44;;;9.71;100.00
56668;BME280;42542;48.360;10.958;2023-04-24T02:51:10;95170.25;;;9.72;100.00
56668;BME280;42542;48.360;10.958;2023-04-24T02:54:13;95171.25;;;9.71;100.00
56668;BME280;42542;48.360;10.958;2023-04-24T02:57:16;95177.44;;;9.72;100.00
56668;BME280;42542;48.360;10.958;2023-04-24T03:00:17;95179.25;;;9.71;100.00
56668;BME280;42542;48.360;10.958;2023-04-24T03:03:20;95176.59;;;9.71;100.00
56668;BME280;42542;48.360;10.958;2023-04-24T03:06:22;95175.59;;;9.72;100.00
56668;BME280;42542;48.360;10.958;2023-04-24T03:09:25;95181.94;;;9.71;100.00
56668;BME280;42542;48.360;10.958;2023-04-24T03:12:27;95175.75;;;9.71;100.00
56668;BME280;42542;48.360;10.958;2023-04-24T03:15:30;95175.75;;;9.71;100.00
56668;BME280;42542;48.360;10.958;2023-04-24T03:18:34;95177.59;;;9.70;100.00
56668;BME280;42542;48.360;10.958;2023-04-24T03:21:38;95175.75;;;9.71;100.00
56668;BME280;42542;48.360;10.958;2023-04-24T03:24:42;95179.25;;;9.71;100.00
56668;BME280;42542;48.360;10.958;2023-04-24T03:27:46;95176.59;;;9.71;100.00
56668;BME280;42542;48.360;10.958;2023-04-24T03:31:12;95174.75;;;9.72;100.00
56668;BME280;42542;48.360;10.958;2023-04-24T03:34:14;95172.09;;;9.72;100.00
56668;BME280;42542;48.360;10.958;2023-04-24T03:37:16;95162.59;;;9.69;100.00
56668;BME280;42542;48.360;10.958;2023-04-24T03:40:28;95170.59;;;9.69;100.00
56668;BME280;42542;48.360;10.958;2023-04-24T03:43:33;95165.25;;;9.69;100.00
56668;BME280;42542;48.360;10.958;2023-04-24T03:46:37;95168.94;;;9.68;100.00
56668;BME280;42542;48.360;10.958;2023-04-24T03:49:39;95169.78;;;9.69;100.00
56668;BME280;42542;48.360;10.958;2023-04-24T03:52:43;95174.44;;;9.67;100.00
56668;BME280;42542;48.360;10.958;2023-04-24T03:55:57;95169.94;;;9.67;100.00
56668;BME280;42542;48.360;10.958;2023-04-24T03:58:59;95169.13;;;9.67;100.00
56668;BME280;42542;48.360;10.958;2023-04-24T04:02:02;95164.78;;;9.66;100.00
56668;BME280;42542;48.360;10.958;2023-04-24T04:05:05;95162.31;;;9.64;100.00
56668;BME280;42542;48.360;10.958;2023-04-24T04:08:06;95169.50;;;9.64;100.00
56668;BME280;42542;48.360;10.958;2023-04-24T04:11:10;95171.50;;;9.62;100.00
56668;BME280;42542;48.360;10.958;2023-04-24T04:14:14;95169.84;;;9.61;100.00
56668;BME280;42542;48.360;10.958;2023-04-24T04:17:20;95167.19;;;9.61;100.00
56668;BME280;42542;48.360;10.958;2023-04-24T04:20:22;95164.69;;;9.59;100.00
56668;BME280;42542;48.360;10.958;2023-04-24T04:23:24;95170.03;;;9.59;100.00
56668;BME280;42542;48.360;10.958;2023-04-24T04:27:00;95180.06;;;9.57;100.00
56668;BME280;42542;48.360;10.958;2023-04-24T04:30:09;95177.56;;;9.56;100.00
56668;BME280;42542;48.360;10.958;2023-04-24T04:33:40;95176.75;;;9.55;100.00
56668;BME280;42542;48.360;10.958;2023-04-24T04:36:46;95182.25;;;9.54;100.00
56668;BME280;42542;48.360;10.958;2023-04-24T04:40:05;95186.09;;;9.51;100.00
56668;BME280;42542;48.360;10.958;2023-04-24T04:43:23;95188.97;;;9.50;100.00
56668;BME280;42542;48.360;10.958;2023-04-24T04:46:28;95185.47;;;9.49;100.00
56668;BME280;42542;48.360;10.958;2023-04-24T04:49:41;95186.47;;;9.48;100.00
56668;BME280;42542;48.360;10.958;2023-04-24T04:52:52;95181.69;;;9.44;100.00
56668;BME280;42542;48.360;10.958;2023-04-24T04:56:02;95193.66;;;9.48;100.00
56668;BME280;42542;48.360;10.958;2023-04-24T04:59:11;95195.47;;;9.47;100.00
56668;BME280;42542;48.360;10.958;2023-04-24T05:02:25;95196.97;;;9.50;100.00
56668;BME280;42542;48.360;10.958;2023-04-24T05:05:28;95197.97;;;9.49;100.00
56668;BME280;42542;48.360;10.958;2023-04-24T05:08:31;95198.63;;;9.51;100.00
56668;BME280;42542;48.360;10.958;2023-04-24T05:11:34;95202.59;;;9.55;100.00
56668;BME280;42542;48.360;10.958;2023-04-24T05:14:36;95195.25;;;9.57;100.00
56668;BME280;42542;48.360;10.958;2023-04-24T05:17:39;95203.41;;;9.55;100.00
56668;BME280;42542;48.360;10.958;2023-04-24T05:20:42;95212.09;;;9.57;100.00
56668;BME280;42542;48.360;10.958;2023-04-24T05:23:46;95218.88;;;9.60;100.00
56668;BME280;42542;48.360;10.958;2023-04-24T05:26:54;95217.22;;;9.59;100.00
56668;BME280;42542;48.360;10.958;2023-04-24T05:30:03;95217.03;;;9.60;100.00
56668;BME280;42542;48.360;10.958;2023-04-24T05:33:10;95223.88;;;9.63;100.00
56668;BME280;42542;48.360;10.958;2023-04-24T05:36:14;95223.03;;;9.62;100.00
56668;BME280;42542;48.360;10.958;2023-04-24T05:39:18;95210.25;;;9.58;100.00
56668;BME280;42542;48.360;10.958;2023-04-24T05:42:21;95213.72;;;9.58;100.00
56668;BME280;42542;48.360;10.958;2023-04-24T05:45:25;95226.34;;;9.64;100.00
56668;BME280;42542;48.360;10.958;2023-04-24T05:48:29;95222.84;;;9.64;100.00
56668;BME280;42542;48.360;10.958;2023-04-24T05:51:35;95235.66;;;9.68;100.00
56668;BME280;42542;48.360;10.958;2023-04-24T05:54:42;95229.13;;;9.71;100.00
56668;BME280;42542;48.360;10.958;2023-04-24T05:57:53;95231.63;;;9.72;100.00
56668;BME280;42542;48.360;10.958;2023-04-24T06:00:58;95227.81;;;9.67;100.00
56668;BME280;42542;48.360;10.958;2023-04-24T06:04:03;95240.31;;;9.66;100.00
56668;BME280;42542;48.360;10.958;2023-04-24T06:07:06;95235.31;;;9.71;100.00
56668;BME280;42542;48.360;10.958;2023-04-24T06:10:09;95241.47;;;9.72;100.00
56668;BME280;42542;48.360;10.958;2023-04-24T06:13:16;95243.75;;;9.75;100.00
56668;BME280;42542;48.360;10.958;2023-04-24T06:16:34;95234.91;;;9.74;100.00
56668;BME280;42542;48.360;10.958;2023-04-24T06:19:44;95245.59;;;9.74;100.00
56668;BME280;42542;48.360;10.958;2023-04-24T06:22:46;95235.47;;;9.70;100.00
56668;BME280;42542;48.360;10.958;2023-04-24T06:25:48;95240.09;;;9.76;100.00
56668;BME280;42542;48.360;10.958;2023-04-24T06:28:51;95245.69;;;9.81;100.00
56668;BME280;42542;48.360;10.958;2023-04-24T06:31:53;95252.69;;;9.82;100.00
56668;BME280;42542;48.360;10.958;2023-04-24T06:34:55;95250.19;;;9.80;100.00
56668;BME280;42542;48.360;10.958;2023-04-24T06:38:00;95246.06;;;9.78;100.00
56668;BME280;42542;48.360;10.958;2023-04-24T06:41:03;95255.19;;;9.84;99.78
56668;BME280;42542;48.360;10.958;2023-04-24T06:44:06;95253.72;;;9.81;99.21
56668;BME280;42542;48.360;10.958;2023-04-24T06:47:11;95254.00;;;9.86;99.64
56668;BME280;42542;48.360;10.958;2023-04-24T06:50:15;95257.13;;;9.90;100.00
56668;BME280;42542;48.360;10.958;2023-04-24T06:53:18;95259.63;;;9.91;98.63
56668;BME280;42542;48.360;10.958;2023-04-24T06:56:20;95259.47;;;9.93;98.84
56668;BME280;42542;48.360;10.958;2023-04-24T06:59:26;95272.25;;;9.97;99.46
56668;BME280;42542;48.360;10.958;2023-04-24T07:02:28;95264.06;;;9.99;98.81
56668;BME280;42542;48.360;10.958;2023-04-24T07:05:30;95273.19;;;10.04;98.07
56668;BME280;42542;48.360;10.958;2023-04-24T07:08:33;95279.84;;;10.08;98.11
56668;BME280;42542;48.360;10.958;2023-04-24T07:11:39;95286.19;;;10.07;97.53
56668;BME280;42542;48.360;10.958;2023-04-24T07:14:42;95285.53;;;10.05;96.71
56668;BME280;42542;48.360;10.958;2023-04-24T07:17:44;95296.03;;;10.07;96.68
56668;BME280;42542;48.360;10.958;2023-04-24T07:20:46;95294.00;;;10.09;96.73
56668;BME280;42542;48.360;10.958;2023-04-24T07:23:51;95297.97;;;10.13;97.34
56668;BME280;42542;48.360;10.958;2023-04-24T07:26:54;95297.50;;;10.09;96.48
56668;BME280;42542;48.360;10.958;2023-04-24T07:29:57;95314.00;;;10.13;95.75
56668;BME280;42542;48.360;10.958;2023-04-24T07:32:59;95302.94;;;10.16;95.98
56668;BME280;42542;48.360;10.958;2023-04-24T07:36:01;95312.81;;;10.15;95.37
56668;BME280;42542;48.360;10.958;2023-04-24T07:39:04;95316.50;;;10.14;95.79
56668;BME280;42542;48.360;10.958;2023-04-24T07:42:07;95332.69;;;10.13;94.67
56668;BME280;42542;48.360;10.958;2023-04-24T07:45:10;95329.25;;;10.04;96.67
56668;BME280;42542;48.360;10.958;2023-04-24T07:48:13;95343.97;;;10.00;96.17
56668;BME280;42542;48.360;10.958;2023-04-24T07:51:18;95345.34;;;9.96;96.85
56668;BME280;42542;48.360;10.958;2023-04-24T07:54:19;95349.00;;;9.95;96.53
56668;BME280;42542;48.360;10.958;2023-04-24T07:57:21;95347.34;;;9.94;97.26
56668;BME280;42542;48.360;10.958;2023-04-24T08:00:23;95337.88;;;9.92;97.21
56668;BME280;42542;48.360;10.958;2023-04-24T08:03:25;95339.22;;;9.88;96.13
56668;BME280;42542;48.360;10.958;2023-04-24T08:06:28;95344.44;;;9.81;90.67
56668;BME280;42542;48.360;10.958;2023-04-24T08:09:33;95351.16;;;9.77;89.03
56668;BME280;42542;48.360;10.958;2023-04-24T08:12:35;95355.97;;;9.82;90.55
56668;BME280;42542;48.360;10.958;2023-04-24T08:15:40;95365.28;;;9.86;92.45
56668;BME280;42542;48.360;10.958;2023-04-24T08:18:42;95361.63;;;9.87;93.56
56668;BME280;42542;48.360;10.958;2023-04-24T08:21:45;95357.56;;;9.91;92.88
56668;BME280;42542;48.360;10.958;2023-04-24T08:24:48;95361.00;;;9.99;93.65
56668;BME280;42542;48.360;10.958;2023-04-24T08:27:51;95351.44;;;10.05;93.39
56668;BME280;42542;48.360;10.958;2023-04-24T08:30:53;95343.44;;;10.05;89.78
56668;BME280;42542;48.360;10.958;2023-04-24T08:33:57;95348.88;;;10.11;90.34
56668;BME280;42542;48.360;10.958;2023-04-24T08:37:00;95349.38;;;10.15;89.50
56668;BME280;42542;48.360;10.958;2023-04-24T08:40:09;95344.63;;;10.25;90.06
56668;BME280;42542;48.360;10.958;2023-04-24T08:43:13;95345.53;;;10.32;88.57
56668;BME280;42542;48.360;10.958;2023-04-24T08:46:18;95361.78;;;10.45;89.72
56668;BME280;42542;48.360;10.958;2023-04-24T08:49:20;95359.75;;;10.47;86.18
56668;BME280;42542;48.360;10.958;2023-04-24T08:52:23;95358.59;;;10.50;84.21
56668;BME280;42542;48.360;10.958;2023-04-24T08:55:25;95360.03;;;10.52;85.16
56668;BME280;42542;48.360;10.958;2023-04-24T08:58:28;95366.69;;;10.56;85.21
56668;BME280;42542;48.360;10.958;2023-04-24T09:01:32;95355.44;;;10.61;84.79
56668;BME280;42542;48.360;10.958;2023-04-24T09:04:37;95361.19;;;10.73;85.78
56668;BME280;42542;48.360;10.958;2023-04-24T09:07:45;95376.09;;;10.82;83.08
56668;BME280;42542;48.360;10.958;2023-04-24T09:10:48;95381.53;;;10.88;82.22
56668;BME280;42542;48.360;10.958;2023-04-24T09:13:53;95382.59;;;11.02;82.81
56668;BME280;42542;48.360;10.958;2023-04-24T09:16:56;95389.84;;;11.08;80.64
56668;BME280;42542;48.360;10.958;2023-04-24T09:19:58;95385.78;;;11.12;79.28
56668;BME280;42542;48.360;10.958;2023-04-24T09:23:03;95375.84;;;11.06;77.84
56668;BME280;42542;48.360;10.958;2023-04-24T09:26:05;95389.03;;;11.08;78.72
56668;BME280;42542;48.360;10.958;2023-04-24T09:29:08;95378.41;;;11.00;77.95
56668;BME280;42542;48.360;10.958;2023-04-24T09:32:19;95373.25;;;10.98;75.64
56668;BME280;42542;48.360;10.958;2023-04-24T09:35:24;95373.50;;;11.03;77.42
56668;BME280;42542;48.360;10.958;2023-04-24T09:38:34;95370.47;;;11.06;77.67
56668;BME280;42542;48.360;10.958;2023-04-24T09:41:53;95377.19;;;11.17;78.94
56668;BME280;42542;48.360;10.958;2023-04-24T09:44:56;95373.16;;;11.21;78.13
56668;BME280;42542;48.360;10.958;2023-04-24T09:48:12;95376.72;;;11.28;78.82
56668;BME280;42542;48.360;10.958;2023-04-24T09:51:14;95370.81;;;11.32;77.06
56668;BME280;42542;48.360;10.958;2023-04-24T09:54:19;95365.34;;;11.41;78.56
56668;BME280;42542;48.360;10.958;2023-04-24T09:57:22;95362.13;;;11.45;76.56
56668;BME280;42542;48.360;10.958;2023-04-24T10:00:31;95361.38;;;11.51;76.83
56668;BME280;42542;48.360;10.958;2023-04-24T10:03:35;95360.16;;;11.54;74.55
56668;BME280;42542;48.360;10.958;2023-04-24T10:06:42;95349.34;;;11.62;75.50
56668;BME280;42542;48.360;10.958;2023-04-24T10:09:47;95354.56;;;11.70;76.06
56668;BME280;42542;48.360;10.958;2023-04-24T10:12:51;95345.34;;;11.72;74.27
56668;BME280;42542;48.360;10.958;2023-04-24T10:16:00;95363.16;;;11.80;74.61
56668;BME280;42542;48.360;10.958;2023-04-24T10:19:02;95382.53;;;11.82;74.53
56668;BME280;42542;48.360;10.958;2023-04-24T10:22:04;95403.56;;;11.49;74.74
56668;BME280;42542;48.360;10.958;2023-04-24T10:25:10;95392.44;;;11.16;76.66
56668;BME280;42542;48.360;10.958;2023-04-24T10:28:13;95408.81;;;10.69;77.70
56668;BME280;42542;48.360;10.958;2023-04-24T10:31:15;95423.72;;;10.49;80.42
56668;BME280;42542;48.360;10.958;2023-04-24T10:34:18;95425.41;;;10.27;82.50
56668;BME280;42542;48.360;10.958;2023-04-24T10:37:23;95423.53;;;10.05;84.38
56668;BME280;42542;48.360;10.958;2023-04-24T10:40:31;95427.31;;;9.88;85.23
56668;BME280;42542;48.360;10.958;2023-04-24T10:43:34;95415.44;;;9.67;88.35
56668;BME280;42542;48.360;10.958;2023-04-24T10:46:39;95419.47;;;9.63;88.24
56668;BME280;42542;48.360;10.958;2023-04-24T10:49:44;95422.13;;;9.63;89.97
56668;BME280;42542;48.360;10.958;2023-04-24T10:52:47;95421.31;;;9.63;89.89
56668;BME280;42542;48.360;10.958;2023-04-24T10:55:56;95413.63;;;9.60;90.57
56668;BME280;42542;48.360;10.958;2023-04-24T10:58:59;95414.59;;;9.67;90.39
56668;BME280;42542;48.360;10.958;2023-04-24T11:02:01;95408.75;;;9.71;90.83
56668;BME280;42542;48.360;10.958;2023-04-24T11:05:04;95406.66;;;9.82;92.46
56668;BME280;42542;48.360;10.958;2023-04-24T11:08:39;95404.25;;;9.95;92.08
56668;BME280;42542;48.360;10.958;2023-04-24T11:11:45;95402.72;;;10.00;89.72
56668;BME280;42542;48.360;10.958;2023-04-24T11:15:04;95401.59;;;10.17;92.14
56668;BME280;42542;48.360;10.958;2023-04-24T11:18:22;95407.31;;;10.37;92.47
56668;BME280;42542;48.360;10.958;2023-04-24T11:21:24;95401.50;;;10.48;90.74
56668;BME280;42542;48.360;10.958;2023-04-24T11:27:43;95400.44;;;10.72;88.06
56668;BME280;42542;48.360;10.958;2023-04-24T11:30:46;95401.00;;;10.82;85.38
56668;BME280;42542;48.360;10.958;2023-04-24T11:33:47;95414.44;;;10.89;81.68
56668;BME280;42542;48.360;10.958;2023-04-24T11:36:50;95406.53;;;10.95;79.50
56668;BME280;42542;48.360;10.958;2023-04-24T11:39:57;95401.09;;;11.04;76.17
56668;BME280;42542;48.360;10.958;2023-04-24T11:43:00;95394.06;;;11.17;78.91
56668;BME280;42542;48.360;10.958;2023-04-24T11:46:02;95389.09;;;11.29;76.27
56668;BME280;42542;48.360;10.958;2023-04-24T11:49:07;95393.78;;;11.42;75.42
56668;BME280;42542;48.360;10.958;2023-04-24T11:52:09;95393.50;;;11.51;73.21
56668;BME280;42542;48.360;10.958;2023-04-24T11:58:20;95396.75;;;11.68;70.67
56668;BME280;42542;48.360;10.958;2023-04-24T12:01:25;95408.13;;;11.70;70.69
56668;BME280;42542;48.360;10.958;2023-04-24T12:04:41;95409.53;;;11.66;71.35
56668;BME280;42542;48.360;10.958;2023-04-24T12:07:44;95421.59;;;11.62;69.17
56668;BME280;42542;48.360;10.958;2023-04-24T12:10:50;95409.09;;;11.48;66.67
56668;BME280;42542;48.360;10.958;2023-04-24T12:13:55;95411.84;;;11.54;68.27
56668;BME280;42542;48.360;10.958;2023-04-24T12:16:58;95404.53;;;11.63;68.79
56668;BME280;42542;48.360;10.958;2023-04-24T12:20:05;95415.31;;;11.69;67.73
56668;BME280;42542;48.360;10.958;2023-04-24T12:23:09;95418.19;;;11.68;60.92
56668;BME280;42542;48.360;10.958;2023-04-24T12:26:11;95421.78;;;11.75;62.51
56668;BME280;42542;48.360;10.958;2023-04-24T12:29:20;95419.66;;;11.85;61.74
56668;BME280;42542;48.360;10.958;2023-04-24T12:32:22;95416.09;;;11.99;63.58
56668;BME280;42542;48.360;10.958;2023-04-24T12:35:31;95420.94;;;12.10;60.08
56668;BME280;42542;48.360;10.958;2023-04-24T12:38:35;95422.06;;;12.16;59.75
56668;BME280;42542;48.360;10.958;2023-04-24T12:41:59;95426.63;;;12.22;60.75
56668;BME280;42542;48.360;10.958;2023-04-24T12:45:05;95411.25;;;12.31;60.48
56668;BME280;42542;48.360;10.958;2023-04-24T12:48:09;95430.09;;;12.37;59.72
56668;BME280;42542;48.360;10.958;2023-04-24T12:51:11;95421.69;;;12.47;61.32
56668;BME280;42542;48.360;10.958;2023-04-24T12:54:13;95420.69;;;12.48;58.34
56668;BME280;42542;48.360;10.958;2023-04-24T12:57:15;95414.13;;;12.50;59.29
56668;BME280;42542;48.360;10.958;2023-04-24T13:00:17;95432.22;;;12.48;58.60
56668;BME280;42542;48.360;10.958;2023-04-24T13:03:20;95440.72;;;12.52;58.82
56668;BME280;42542;48.360;10.958;2023-04-24T13:06:24;95439.63;;;12.46;56.86
56668;BME280;42542;48.360;10.958;2023-04-24T13:09:27;95447.31;;;12.28;54.84
56668;BME280;42542;48.360;10.958;2023-04-24T13:12:30;95445.81;;;12.26;56.68
56668;BME280;42542;48.360;10.958;2023-04-24T13:15:32;95452.28;;;12.31;55.79
56668;BME280;42542;48.360;10.958;2023-04-24T13:18:36;95449.03;;;12.36;53.63
56668;BME280;42542;48.360;10.958;2023-04-24T13:21:37;95451.66;;;12.50;53.71
56668;BME280;42542;48.360;10.958;2023-04-24T13:24:40;95452.59;;;12.64;52.09
56668;BME280;42542;48.360;10.958;2023-04-24T13:27:42;95450.41;;;12.74;50.05
56668;BME280;42542;48.360;10.958;2023-04-24T13:30:45;95447.00;;;12.87;50.82
56668;BME280;42542;48.360;10.958;2023-04-24T13:33:47;95440.06;;;12.99;49.78
56668;BME280;42542;48.360;10.958;2023-04-24T13:36:52;95429.34;;;12.99;49.86
56668;BME280;42542;48.360;10.958;2023-04-24T13:39:54;95443.84;;;13.11;48.39
56668;BME280;42542;48.360;10.958;2023-04-24T13:42:57;95446.19;;;13.14;47.22
56668;BME280;42542;48.360;10.958;2023-04-24T13:45:58;95433.41;;;13.16;47.31
56668;BME280;42542;48.360;10.958;2023-04-24T13:49:02;95435.31;;;13.22;47.41
56668;BME280;42542;48.360;10.958;2023-04-24T13:52:05;95429.53;;;13.25;48.59
56668;BME280;42542;48.360;10.958;2023-04-24T13:55:07;95439.06;;;13.28;48.95
56668;BME280;42542;48.360;10.958;2023-04-24T13:58:09;95450.06;;;13.12;49.09
56668;BME280;42542;48.360;10.958;2023-04-24T14:01:12;95449.00;;;13.06;50.25
56668;BME280;42542;48.360;10.958;2023-04-24T14:04:14;95444.78;;;12.97;49.65
56668;BME280;42542;48.360;10.958;2023-04-24T14:07:18;95450.66;;;12.79;48.05
56668;BME280;42542;48.360;10.958;2023-04-24T14:10:20;95457.00;;;12.72;49.28
56668;BME280;42542;48.360;10.958;2023-04-24T14:13:22;95447.59;;;12.61;48.36
56668;BME280;42542;48.360;10.958;2023-04-24T14:16:25;95456.81;;;12.52;47.20
56668;BME280;42542;48.360;10.958;2023-04-24T14:19:27;95456.69;;;12.39;47.62
56668;BME280;42542;48.360;10.958;2023-04-24T14:22:29;95458.56;;;12.38;48.62
56668;BME280;42542;48.360;10.958;2023-04-24T14:25:32;95478.50;;;12.36;49.12
56668;BME280;42542;48.360;10.958;2023-04-24T14:28:35;95464.47;;;12.34;49.01
56668;BME280;42542;48.360;10.958;2023-04-24T14:31:37;95464.28;;;12.57;49.25
56668;BME280;42542;48.360;10.958;2023-04-24T14:34:40;95466.78;;;12.86;48.48
56668;BME280;42542;48.360;10.958;2023-04-24T14:37:43;95456.97;;;13.21;47.01
56668;BME280;42542;48.360;10.958;2023-04-24T14:40:45;95458.72;;;13.35;46.76
56668;BME280;42542;48.360;10.958;2023-04-24T14:43:50;95454.03;;;13.50;46.49
56668;BME280;42542;48.360;10.958;2023-04-24T14:46:52;95461.56;;;13.61;46.74
56668;BME280;42542;48.360;10.958;2023-04-24T14:49:55;95463.91;;;13.84;45.38
56668;BME280;42542;48.360;10.958;2023-04-24T14:52:57;95467.25;;;13.93;44.87
56668;BME280;42542;48.360;10.958;2023-04-24T14:56:00;95456.03;;;13.76;45.29
56668;BME280;42542;48.360;10.958;2023-04-24T14:59:02;95474.72;;;13.56;45.03
56668;BME280;42542;48.360;10.958;2023-04-24T15:02:05;95479.13;;;13.29;45.62
56668;BME280;42542;48.360;10.958;2023-04-24T15:05:18;95485.16;;;13.10;45.96
56668;BME280;42542;48.360;10.958;2023-04-24T15:08:20;95487.63;;;13.12;46.27
56668;BME280;42542;48.360;10.958;2023-04-24T15:11:22;95481.13;;;13.21;46.64
56668;BME280;42542;48.360;10.958;2023-04-24T15:14:24;95488.28;;;13.42;44.63
56668;BME280;42542;48.360;10.958;2023-04-24T15:17:27;95476.47;;;13.77;45.11
56668;BME280;42542;48.360;10.958;2023-04-24T15:20:29;95488.91;;;13.85;44.23
56668;BME280;42542;48.360;10.958;2023-04-24T15:23:30;95503.59;;;13.82;43.42
56668;BME280;42542;48.360;10.958;2023-04-24T15:26:32;95494.38;;;13.63;42.76
56668;BME280;42542;48.360;10.958;2023-04-24T15:29:34;95496.19;;;13.50;44.05
56668;BME280;42542;48.360;10.958;2023-04-24T15:32:39;95504.63;;;13.47;44.68
56668;BME280;42542;48.360;10.958;2023-04-24T15:35:41;95495.59;;;13.26;44.12
56668;BME280;42542;48.360;10.958;2023-04-24T15:38:44;95495.22;;;13.29;45.26
56668;BME280;42542;48.360;10.958;2023-04-24T15:41:46;95492.31;;;13.59;44.28
56668;BME280;42542;48.360;10.958;2023-04-24T15:44:47;95498.44;;;13.87;42.63
56668;BME280;42542;48.360;10.958;2023-04-24T15:47:50;95490.06;;;14.10;42.07
56668;BME280;42542;48.360;10.958;2023-04-24T15:50:52;95511.63;;;14.30;41.55
56668;BME280;42542;48.360;10.958;2023-04-24T15:53:54;95494.50;;;14.37;41.34
56668;BME280;42542;48.360;10.958;2023-04-24T15:56:56;95491.22;;;14.49;40.66
56668;BME280;42542;48.360;10.958;2023-04-24T15:59:59;95488.34;;;14.63;40.39
56668;BME280;42542;48.360;10.958;2023-04-24T16:03:12;95502.25;;;14.80;40.46
56668;BME280;42542;48.360;10.958;2023-04-24T16:06:14;95492.72;;;14.71;40.51
56668;BME280;42542;48.360;10.958;2023-04-24T16:09:16;95500.78;;;14.77;40.19